Time;durP1;ratioP1;P1;durP2;ratioP2;P2;SDS_P1;SDS_P2;PMS_P1;PMS_P2;Temp;Humidity;BMP_temperature;BMP_pressure;BME280_temperature;BME280_humidity;BME280_pressure;Samples;Min_cycle;Max_cycle;Signal;HPM_P1;HPM_P2
2023/05/26 00:02:08;;;;;;;26.30;5.80;;;;;;;;;;5034183;28;20045;-69
2023/05/26 00:04:34;;;;;;;29.13;5.82;;;;;;;;;;5034840;28;20046;-69
2023/05/26 00:07:00;;;;;;;33.13;6.40;;;;;;;;;;5035913;28;20065;-69
2023/05/26 00:09:26;;;;;;;29.52;6.20;;;;;;;;;;5035074;28;20053;-69
2023/05/26 00:11:52;;;;;;;28.17;5.70;;;;;;;;;;5035834;28;20059;-69
2023/05/26 00:14:18;;;;;;;24.98;5.88;;;;;;;;;;5034884;28;20044;-69
2023/05/26 00:16:44;;;;;;;25.77;5.70;;;;;;;;;;5035589;28;20053;-69
2023/05/26 00:19:12;;;;;;;33.30;6.38;;;;;;;;;;5035092;28;20394;-69
2023/05/26 00:21:39;;;;;;;28.48;6.35;;;;;;;;;;5033047;28;20128;-69
2023/05/26 00:24:05;;;;;;;25.35;6.47;;;;;;;;;;5034978;28;20052;-69
2023/05/26 00:26:31;;;;;;;28.55;6.32;;;;;;;;;;5017176;28;20359;-69
2023/05/26 00:28:57;;;;;;;26.13;6.22;;;;;;;;;;5034219;28;20127;-69
2023/05/26 00:31:23;;;;;;;28.63;5.95;;;;;;;;;;5017375;28;20045;-69
2023/05/26 00:33:49;;;;;;;28.13;6.20;;;;;;;;;;5034470;28;20497;-69
2023/05/26 00:36:15;;;;;;;25.52;5.68;;;;;;;;;;5035155;28;20041;-69
2023/05/26 00:38:41;;;;;;;29.25;5.97;;;;;;;;;;5017018;28;20042;-69
2023/05/26 00:41:07;;;;;;;32.30;6.03;;;;;;;;;;5033167;28;20089;-69
2023/05/26 00:43:33;;;;;;;26.33;6.30;;;;;;;;;;5033730;28;20079;-69
2023/05/26 00:45:59;;;;;;;33.50;6.07;;;;;;;;;;5034906;28;20045;-69
2023/05/26 00:48:25;;;;;;;31.52;5.68;;;;;;;;;;5016032;28;20041;-69
2023/05/26 00:50:51;;;;;;;27.33;5.93;;;;;;;;;;5019124;28;20053;-68
2023/05/26 00:53:18;;;;;;;27.40;5.90;;;;;;;;;;5033433;28;20121;-68
2023/05/26 00:55:44;;;;;;;27.77;5.60;;;;;;;;;;5017368;28;20100;-68
2023/05/26 00:58:11;;;;;;;29.58;6.32;;;;;;;;;;5034444;28;20049;-68
2023/05/26 01:00:37;;;;;;;26.00;5.90;;;;;;;;;;5034890;28;20395;-68
2023/05/26 01:03:05;;;;;;;28.77;5.93;;;;;;;;;;5034290;28;20513;-68
2023/05/26 01:05:31;;;;;;;29.48;5.68;;;;;;;;;;5034470;28;20067;-68
2023/05/26 01:07:57;;;;;;;29.00;5.80;;;;;;;;;;5034484;28;20052;-68
2023/05/26 01:10:23;;;;;;;29.67;6.18;;;;;;;;;;5033085;28;20092;-68
2023/05/26 01:13:00;;;;;;;24.45;5.97;;;;;;;;;;5034485;28;20042;-68
2023/05/26 01:15:30;;;;;;;36.03;6.63;;;;;;;;;;5033662;28;20049;-69
2023/05/26 01:18:20;;;;;;;27.20;5.63;;;;;;;;;;5014825;28;20057;-68
2023/05/26 01:20:49;;;;;;;27.02;5.85;;;;;;;;;;5016453;28;20433;-68
2023/05/26 01:23:27;;;;;;;25.92;5.97;;;;;;;;;;5034434;28;20125;-68
2023/05/26 01:26:11;;;;;;;26.42;5.93;;;;;;;;;;5031300;28;20049;-68
2023/05/26 01:28:38;;;;;;;32.60;6.43;;;;;;;;;;5018836;28;20052;-68
2023/05/26 01:31:04;;;;;;;27.27;5.80;;;;;;;;;;5032284;28;20057;-68
2023/05/26 01:33:30;;;;;;;27.42;5.88;;;;;;;;;;5034183;28;20056;-68
2023/05/26 01:35:56;;;;;;;26.95;5.60;;;;;;;;;;5033745;28;20124;-68
2023/05/26 01:38:23;;;;;;;22.45;6.03;;;;;;;;;;5033724;28;20125;-68
2023/05/26 01:40:52;;;;;;;29.20;6.63;;;;;;;;;;5033437;28;20128;-68
2023/05/26 01:43:22;;;;;;;30.42;6.30;;;;;;;;;;5032664;28;20042;-68
2023/05/26 01:46:03;;;;;;;28.67;6.00;;;;;;;;;;5032390;28;20046;-68
2023/05/26 01:48:31;;;;;;;27.05;5.53;;;;;;;;;;5015564;28;20510;-68
2023/05/26 01:50:57;;;;;;;27.95;6.38;;;;;;;;;;5033753;28;20405;-69
2023/05/26 01:53:34;;;;;;;27.17;5.55;;;;;;;;;;5016144;28;20108;-69
2023/05/26 01:56:01;;;;;;;27.42;6.35;;;;;;;;;;5015548;28;20524;-69
2023/05/26 01:58:28;;;;;;;24.70;5.78;;;;;;;;;;5017260;28;20386;-69
2023/05/26 02:00:54;;;;;;;25.52;5.97;;;;;;;;;;5015442;28;20402;-69
2023/05/26 02:03:21;;;;;;;25.13;5.82;;;;;;;;;;5014049;28;20437;-69
2023/05/26 02:05:47;;;;;;;34.97;6.70;;;;;;;;;;5032973;28;20057;-70
2023/05/26 02:08:13;;;;;;;28.92;6.18;;;;;;;;;;5033163;28;20045;-69
2023/05/26 02:10:39;;;;;;;25.90;6.03;;;;;;;;;;5015276;28;20527;-69
2023/05/26 02:13:06;;;;;;;25.92;6.03;;;;;;;;;;5033380;28;20374;-69
2023/05/26 02:15:32;;;;;;;27.52;6.25;;;;;;;;;;5032427;28;20073;-69
2023/05/26 02:17:58;;;;;;;28.73;6.18;;;;;;;;;;5015112;28;20057;-69
2023/05/26 02:20:25;;;;;;;29.08;5.72;;;;;;;;;;5032779;28;20124;-69
2023/05/26 02:22:51;;;;;;;29.38;5.72;;;;;;;;;;5032993;28;20056;-69
2023/05/26 02:25:17;;;;;;;25.65;5.93;;;;;;;;;;5032996;28;20125;-69
2023/05/26 02:27:43;;;;;;;24.55;6.60;;;;;;;;;;5014880;28;20136;-67
2023/05/26 02:30:10;;;;;;;28.45;6.07;;;;;;;;;;5015175;28;20477;-68
2023/05/26 02:32:36;;;;;;;33.33;5.78;;;;;;;;;;5032944;28;20086;-68
2023/05/26 02:35:03;;;;;;;31.30;6.70;;;;;;;;;;5032753;28;20168;-68
2023/05/26 02:37:29;;;;;;;26.88;5.95;;;;;;;;;;5014047;28;20402;-68
2023/05/26 02:39:56;;;;;;;24.67;5.35;;;;;;;;;;5041659;28;20123;-67
2023/05/26 02:42:22;;;;;;;22.35;5.57;;;;;;;;;;5031410;28;20042;-68
2023/05/26 02:44:48;;;;;;;31.55;5.88;;;;;;;;;;5051802;28;20155;-67
2023/05/26 02:47:14;;;;;;;30.48;6.18;;;;;;;;;;5053271;28;20123;-69
2023/05/26 02:49:42;;;;;;;26.38;5.93;;;;;;;;;;5054083;28;20056;-69
2023/05/26 02:52:08;;;;;;;25.52;5.60;;;;;;;;;;5037489;28;20049;-69
2023/05/26 02:54:34;;;;;;;25.20;5.55;;;;;;;;;;5057070;28;20056;-69
2023/05/26 02:57:00;;;;;;;27.80;5.85;;;;;;;;;;5034096;28;20033;-68
2023/05/26 02:59:26;;;;;;;27.67;5.90;;;;;;;;;;5031078;28;20107;-69
2023/05/26 03:01:52;;;;;;;29.98;5.93;;;;;;;;;;5032832;28;20041;-68
2023/05/26 03:04:18;;;;;;;30.00;5.80;;;;;;;;;;5032452;28;20057;-69
2023/05/26 03:06:44;;;;;;;31.85;6.03;;;;;;;;;;5031229;28;20037;-69
2023/05/26 03:09:10;;;;;;;25.95;6.10;;;;;;;;;;5031575;28;20106;-69
2023/05/26 03:11:36;;;;;;;25.45;5.43;;;;;;;;;;5032298;28;20417;-69
2023/05/26 03:14:02;;;;;;;24.85;5.38;;;;;;;;;;5031797;28;20128;-68
2023/05/26 03:16:28;;;;;;;24.50;6.03;;;;;;;;;;5032354;28;20094;-68
2023/05/26 03:18:55;;;;;;;26.35;6.22;;;;;;;;;;5031493;28;20041;-68
2023/05/26 03:21:21;;;;;;;26.25;6.40;;;;;;;;;;5031785;28;20172;-67
2023/05/26 03:23:47;;;;;;;26.98;6.03;;;;;;;;;;5031825;28;20076;-67
2023/05/26 03:26:13;;;;;;;27.65;6.38;;;;;;;;;;5031689;28;20472;-68
2023/05/26 03:28:39;;;;;;;34.65;6.25;;;;;;;;;;5030290;28;20386;-68
2023/05/26 03:31:06;;;;;;;28.25;5.60;;;;;;;;;;5030511;28;20087;-68
2023/05/26 03:33:32;;;;;;;22.48;5.05;;;;;;;;;;5029798;28;20502;-68
2023/05/26 03:36:01;;;;;;;32.08;6.80;;;;;;;;;;5031484;28;20047;-68
2023/05/26 03:38:27;;;;;;;27.75;5.68;;;;;;;;;;5031620;28;20390;-68
2023/05/26 03:40:53;;;;;;;33.28;6.60;;;;;;;;;;5030403;28;20045;-68
2023/05/26 03:43:19;;;;;;;29.67;6.13;;;;;;;;;;5014063;28;20037;-68
2023/05/26 03:45:46;;;;;;;29.95;5.72;;;;;;;;;;5031581;28;20048;-68
2023/05/26 03:48:13;;;;;;;27.02;5.95;;;;;;;;;;5031863;28;20455;-68
2023/05/26 03:50:41;;;;;;;30.83;5.70;;;;;;;;;;5031552;28;20486;-68
2023/05/26 03:53:07;;;;;;;19.15;5.30;;;;;;;;;;5012927;28;20045;-68
2023/05/26 03:55:33;;;;;;;31.73;6.13;;;;;;;;;;5031970;28;20045;-68
2023/05/26 03:58:00;;;;;;;27.60;5.35;;;;;;;;;;5031842;28;20106;-68
2023/05/26 04:00:31;;;;;;;25.02;5.47;;;;;;;;;;5031822;28;20077;-68
2023/05/26 04:02:58;;;;;;;31.42;6.35;;;;;;;;;;5031673;28;20076;-68
2023/05/26 04:05:24;;;;;;;29.20;6.20;;;;;;;;;;5013733;28;20092;-68
2023/05/26 04:07:50;;;;;;;29.92;6.10;;;;;;;;;;5013560;28;20191;-68
2023/05/26 04:10:17;;;;;;;38.45;6.25;;;;;;;;;;5031002;28;20081;-68
2023/05/26 04:12:43;;;;;;;25.23;5.28;;;;;;;;;;5030262;28;20046;-68
2023/05/26 04:15:09;;;;;;;25.85;5.55;;;;;;;;;;5031799;28;20046;-68
2023/05/26 04:17:35;;;;;;;24.05;5.60;;;;;;;;;;5030617;28;20044;-68
2023/05/26 04:20:05;;;;;;;26.77;6.00;;;;;;;;;;5030859;28;20445;-68
2023/05/26 04:22:31;;;;;;;28.27;6.35;;;;;;;;;;5013903;28;20077;-68
2023/05/26 04:24:57;;;;;;;31.25;6.32;;;;;;;;;;5013769;28;20147;-68
2023/05/26 04:27:24;;;;;;;29.70;5.60;;;;;;;;;;5031016;28;20084;-68
2023/05/26 04:29:52;;;;;;;25.08;5.75;;;;;;;;;;5029710;28;20502;-68
2023/05/26 04:32:20;;;;;;;32.45;6.30;;;;;;;;;;5030514;28;20136;-68
2023/05/26 04:34:46;;;;;;;30.30;5.80;;;;;;;;;;5013523;28;20057;-68
2023/05/26 04:37:12;;;;;;;25.17;5.55;;;;;;;;;;5031842;28;20041;-68
2023/05/26 04:39:38;;;;;;;22.25;5.40;;;;;;;;;;5029904;28;20064;-68
2023/05/26 04:42:04;;;;;;;26.65;5.90;;;;;;;;;;5031327;28;20197;-68
2023/05/26 04:44:31;;;;;;;30.58;5.85;;;;;;;;;;5032925;28;20124;-68
2023/05/26 04:46:57;;;;;;;24.38;5.55;;;;;;;;;;5035316;28;20049;-68
2023/05/26 04:49:23;;;;;;;33.05;6.18;;;;;;;;;;5015040;28;20045;-68
2023/05/26 04:51:57;;;;;;;28.40;5.10;;;;;;;;;;5042118;28;20125;-69
2023/05/26 04:54:23;;;;;;;29.85;6.32;;;;;;;;;;5034765;28;20116;-68
2023/05/26 04:56:49;;;;;;;27.00;5.50;;;;;;;;;;5030745;28;20121;-68
2023/05/26 04:59:26;;;;;;;27.95;5.57;;;;;;;;;;5034338;28;20414;-69
2023/05/26 05:01:52;;;;;;;27.35;5.70;;;;;;;;;;5034860;28;20081;-69
2023/05/26 05:04:18;;;;;;;23.23;5.30;;;;;;;;;;5034091;28;20057;-69
2023/05/26 05:06:44;;;;;;;35.95;6.55;;;;;;;;;;5016999;28;20546;-68
2023/05/26 05:09:10;;;;;;;23.80;5.30;;;;;;;;;;5034030;28;20409;-68
2023/05/26 05:11:36;;;;;;;20.40;5.00;;;;;;;;;;5034539;28;20413;-69
2023/05/26 05:14:02;;;;;;;25.10;5.53;;;;;;;;;;5034114;28;20034;-69
2023/05/26 05:16:28;;;;;;;27.50;5.68;;;;;;;;;;5032693;28;20042;-68
2023/05/26 05:18:54;;;;;;;23.75;4.97;;;;;;;;;;5034031;28;20063;-69
2023/05/26 05:21:21;;;;;;;23.45;5.93;;;;;;;;;;5034185;28;20052;-69
2023/05/26 05:23:47;;;;;;;31.10;5.57;;;;;;;;;;5033882;28;20375;-69
2023/05/26 05:26:13;;;;;;;25.02;5.65;;;;;;;;;;5031876;28;20037;-69
2023/05/26 05:28:39;;;;;;;20.38;5.28;;;;;;;;;;5032986;28;20444;-67
2023/05/26 05:31:05;;;;;;;28.27;5.70;;;;;;;;;;5032825;28;20045;-68
2023/05/26 05:33:31;;;;;;;25.80;5.22;;;;;;;;;;5033462;28;20038;-68
2023/05/26 05:35:57;;;;;;;33.50;5.95;;;;;;;;;;5034201;28;20056;-68
2023/05/26 05:38:23;;;;;;;25.48;6.00;;;;;;;;;;5033288;28;20049;-68
2023/05/26 05:40:49;;;;;;;27.15;5.30;;;;;;;;;;5033626;28;20053;-69
2023/05/26 05:43:15;;;;;;;27.27;5.57;;;;;;;;;;5033522;28;20056;-68
2023/05/26 05:45:41;;;;;;;23.23;5.07;;;;;;;;;;5015593;28;20080;-67
2023/05/26 05:48:07;;;;;;;22.33;5.32;;;;;;;;;;5015087;28;20041;-67
2023/05/26 05:50:33;;;;;;;21.63;5.25;;;;;;;;;;5015764;28;20056;-67
2023/05/26 05:52:59;;;;;;;25.67;5.97;;;;;;;;;;5036139;28;20049;-68
2023/05/26 05:55:25;;;;;;;25.23;5.28;;;;;;;;;;5033555;28;20075;-68
2023/05/26 05:57:53;;;;;;;25.40;5.60;;;;;;;;;;5032974;28;20187;-68
2023/05/26 06:00:19;;;;;;;20.63;5.07;;;;;;;;;;5033714;28;20131;-67
2023/05/26 06:02:45;;;;;;;27.27;5.70;;;;;;;;;;5033058;28;20049;-68
2023/05/26 06:05:11;;;;;;;25.95;5.20;;;;;;;;;;5032839;28;20058;-68
2023/05/26 06:07:37;;;;;;;20.48;4.95;;;;;;;;;;5030631;28;20051;-67
2023/05/26 06:10:04;;;;;;;20.08;4.93;;;;;;;;;;5033234;28;20053;-68
2023/05/26 06:12:30;;;;;;;23.05;4.70;;;;;;;;;;5032174;28;20049;-68
2023/05/26 06:14:56;;;;;;;25.10;4.60;;;;;;;;;;5032599;28;20049;-68
2023/05/26 06:17:22;;;;;;;21.48;5.30;;;;;;;;;;5032872;28;20048;-68
2023/05/26 06:19:48;;;;;;;21.35;4.65;;;;;;;;;;5031230;28;20041;-68
2023/05/26 06:22:14;;;;;;;26.13;4.90;;;;;;;;;;5032386;28;20124;-67
2023/05/26 06:24:40;;;;;;;26.42;5.60;;;;;;;;;;5032828;28;20048;-67
2023/05/26 06:27:07;;;;;;;23.65;5.13;;;;;;;;;;5033113;28;20056;-68
2023/05/26 06:29:33;;;;;;;22.23;4.75;;;;;;;;;;5031125;28;20049;-68
2023/05/26 06:31:59;;;;;;;25.55;5.32;;;;;;;;;;5030792;28;20048;-68
2023/05/26 06:34:25;;;;;;;19.38;4.78;;;;;;;;;;5051052;28;20041;-67
2023/05/26 06:36:51;;;;;;;21.88;4.32;;;;;;;;;;5033203;28;20038;-67
2023/05/26 06:39:17;;;;;;;25.42;4.53;;;;;;;;;;5032915;28;20135;-67
2023/05/26 06:41:43;;;;;;;23.02;5.07;;;;;;;;;;5031664;28;20081;-67
2023/05/26 06:44:09;;;;;;;17.75;4.25;;;;;;;;;;5032770;28;20049;-67
2023/05/26 06:46:35;;;;;;;22.92;5.15;;;;;;;;;;5031460;28;20613;-68
2023/05/26 06:49:01;;;;;;;18.08;4.22;;;;;;;;;;5032744;28;20072;-68
2023/05/26 06:51:27;;;;;;;19.75;3.95;;;;;;;;;;5032584;28;20041;-68
2023/05/26 06:53:53;;;;;;;20.23;4.25;;;;;;;;;;5032473;28;20052;-68
2023/05/26 06:56:19;;;;;;;15.25;4.15;;;;;;;;;;5032652;28;20132;-68
2023/05/26 06:58:45;;;;;;;21.13;4.32;;;;;;;;;;5032724;28;20049;-67
2023/05/26 07:01:11;;;;;;;18.13;3.97;;;;;;;;;;5031603;28;20042;-68
2023/05/26 07:03:37;;;;;;;19.95;4.05;;;;;;;;;;5032295;28;20045;-68
2023/05/26 07:06:03;;;;;;;17.13;4.22;;;;;;;;;;5032461;28;20064;-68
2023/05/26 07:08:30;;;;;;;19.33;4.30;;;;;;;;;;5014526;28;20052;-68
2023/05/26 07:10:56;;;;;;;18.13;3.83;;;;;;;;;;5031680;28;20046;-69
2023/05/26 07:13:22;;;;;;;19.67;3.83;;;;;;;;;;5032280;28;20041;-67
2023/05/26 07:15:48;;;;;;;16.52;4.03;;;;;;;;;;5033093;28;20498;-70
2023/05/26 07:18:14;;;;;;;16.80;3.67;;;;;;;;;;5032015;28;20129;-73
2023/05/26 07:20:40;;;;;;;15.95;3.88;;;;;;;;;;5032282;28;20060;-68
2023/05/26 07:23:06;;;;;;;16.13;3.90;;;;;;;;;;5032042;28;20046;-71
2023/05/26 07:25:32;;;;;;;15.23;3.75;;;;;;;;;;5013614;28;20482;-68
2023/05/26 07:27:58;;;;;;;13.48;3.20;;;;;;;;;;5038492;28;20493;-67
2023/05/26 07:30:24;;;;;;;16.10;3.92;;;;;;;;;;5052029;28;20070;-68
2023/05/26 07:32:50;;;;;;;19.45;4.35;;;;;;;;;;5034048;28;20095;-68
2023/05/26 07:35:17;;;;;;;18.02;3.90;;;;;;;;;;5051207;28;20448;-68
2023/05/26 07:37:43;;;;;;;17.60;3.58;;;;;;;;;;5052107;28;20071;-68
2023/05/26 07:40:09;;;;;;;14.65;3.40;;;;;;;;;;5051131;28;20049;-70
2023/05/26 07:42:35;;;;;;;19.75;3.80;;;;;;;;;;5051822;28;20460;-69
2023/05/26 07:45:01;;;;;;;13.05;3.85;;;;;;;;;;5039674;28;20045;-68
2023/05/26 07:47:31;;;;;;;19.65;4.18;;;;;;;;;;5031650;28;20178;-68
2023/05/26 07:49:58;;;;;;;16.73;3.67;;;;;;;;;;5030532;28;20058;-68
2023/05/26 07:52:24;;;;;;;18.52;3.60;;;;;;;;;;5030921;28;20037;-68
2023/05/26 07:54:50;;;;;;;13.70;3.55;;;;;;;;;;5031950;28;20075;-68
2023/05/26 07:57:16;;;;;;;10.77;3.05;;;;;;;;;;5032105;28;20052;-69
2023/05/26 07:59:42;;;;;;;15.80;3.40;;;;;;;;;;5031751;28;20186;-68
2023/05/26 08:02:10;;;;;;;16.27;3.65;;;;;;;;;;5031769;28;20057;-67
2023/05/26 08:04:36;;;;;;;12.43;3.53;;;;;;;;;;5031949;28;20057;-68
2023/05/26 08:07:02;;;;;;;13.88;3.70;;;;;;;;;;5032934;28;20131;-68
2023/05/26 08:09:28;;;;;;;18.38;3.90;;;;;;;;;;5014004;28;20395;-70
2023/05/26 08:11:54;;;;;;;15.25;3.90;;;;;;;;;;5032271;28;20076;-68
2023/05/26 08:14:22;;;;;;;12.68;3.58;;;;;;;;;;5031414;28;20156;-68
2023/05/26 08:16:48;;;;;;;13.52;3.72;;;;;;;;;;5031696;28;20046;-68
2023/05/26 08:19:14;;;;;;;15.82;3.70;;;;;;;;;;5033251;28;20041;-68
2023/05/26 08:21:40;;;;;;;15.20;3.53;;;;;;;;;;5035905;28;20049;-70
2023/05/26 08:24:06;;;;;;;14.07;3.30;;;;;;;;;;5035657;28;20048;-69
2023/05/26 08:26:33;;;;;;;15.60;3.65;;;;;;;;;;5035451;28;20084;-67
2023/05/26 08:28:59;;;;;;;14.15;3.58;;;;;;;;;;5034642;28;20053;-68
2023/05/26 08:31:25;;;;;;;15.02;3.25;;;;;;;;;;5035486;28;20398;-68
2023/05/26 08:33:53;;;;;;;13.57;3.65;;;;;;;;;;5035387;28;20141;-68
2023/05/26 08:36:19;;;;;;;17.05;3.92;;;;;;;;;;5017893;28;20128;-67
2023/05/26 08:38:46;;;;;;;13.43;3.92;;;;;;;;;;5034820;28;20045;-68
2023/05/26 08:41:15;;;;;;;17.10;3.50;;;;;;;;;;5034619;28;20073;-69
2023/05/26 08:43:46;;;;;;;17.20;3.63;;;;;;;;;;5034154;28;20125;-69
2023/05/26 08:46:12;;;;;;;14.40;3.22;;;;;;;;;;5034986;28;20128;-69
2023/05/26 08:48:42;;;;;;;13.48;3.40;;;;;;;;;;5016960;28;20500;-68
2023/05/26 08:51:08;;;;;;;16.98;3.78;;;;;;;;;;5035688;28;20053;-69
2023/05/26 08:53:35;;;;;;;16.15;3.88;;;;;;;;;;5017406;28;20362;-67
2023/05/26 08:56:01;;;;;;;15.95;3.58;;;;;;;;;;5045720;28;20045;-69
2023/05/26 08:58:28;;;;;;;16.30;3.97;;;;;;;;;;5054458;28;20052;-69
2023/05/26 09:00:55;;;;;;;14.88;3.72;;;;;;;;;;5054793;28;20036;-68
2023/05/26 09:03:21;;;;;;;13.75;3.60;;;;;;;;;;5054891;28;20063;-69
2023/05/26 09:05:47;;;;;;;13.13;3.40;;;;;;;;;;5054939;28;20057;-69
2023/05/26 09:08:13;;;;;;;18.70;3.83;;;;;;;;;;5054747;28;20099;-68
2023/05/26 09:10:40;;;;;;;13.15;3.35;;;;;;;;;;5053302;28;20063;-69
2023/05/26 09:13:07;;;;;;;14.52;3.85;;;;;;;;;;5054401;28;20049;-68
2023/05/26 09:15:33;;;;;;;12.80;3.42;;;;;;;;;;5054630;28;20084;-67
2023/05/26 09:18:10;;;;;;;15.38;3.80;;;;;;;;;;5042427;28;20386;-67
2023/05/26 09:20:47;;;;;;;13.15;3.72;;;;;;;;;;5034517;28;20049;-68
2023/05/26 09:23:17;;;;;;;13.23;3.58;;;;;;;;;;5034071;28;20057;-67
2023/05/26 09:25:45;;;;;;;16.40;3.38;;;;;;;;;;5034236;28;20060;-68
2023/05/26 09:28:14;;;;;;;15.07;3.60;;;;;;;;;;5034435;28;20045;-67
2023/05/26 09:30:41;;;;;;;17.58;3.72;;;;;;;;;;5015539;28;20415;-70
2023/05/26 09:33:10;;;;;;;13.85;3.63;;;;;;;;;;5033694;28;20044;-67
2023/05/26 09:35:37;;;;;;;16.38;4.00;;;;;;;;;;5034283;28;20049;-67
2023/05/26 09:38:05;;;;;;;12.75;3.80;;;;;;;;;;5033963;28;20038;-67
2023/05/26 09:40:31;;;;;;;15.68;3.78;;;;;;;;;;5032645;28;20122;-69
2023/05/26 09:42:57;;;;;;;16.88;3.40;;;;;;;;;;5033408;28;20037;-68
2023/05/26 09:45:24;;;;;;;12.95;3.40;;;;;;;;;;5033996;28;20120;-68
2023/05/26 09:47:56;;;;;;;17.40;3.75;;;;;;;;;;5034227;28;20179;-67
2023/05/26 09:50:22;;;;;;;15.15;3.90;;;;;;;;;;5033512;28;20054;-68
2023/05/26 09:52:49;;;;;;;13.35;3.38;;;;;;;;;;5014183;28;20052;-68
2023/05/26 09:55:15;;;;;;;14.13;3.60;;;;;;;;;;5033841;28;20041;-68
2023/05/26 09:57:44;;;;;;;12.85;3.40;;;;;;;;;;5033550;28;20116;-68
2023/05/26 10:00:10;;;;;;;15.13;3.47;;;;;;;;;;5033676;28;20065;-68
2023/05/26 10:02:37;;;;;;;16.70;3.75;;;;;;;;;;5032471;28;20091;-68
2023/05/26 10:05:03;;;;;;;15.15;3.75;;;;;;;;;;5015690;28;20068;-69
2023/05/26 10:07:30;;;;;;;15.02;3.40;;;;;;;;;;5033575;28;20050;-69
2023/05/26 10:09:58;;;;;;;13.00;3.63;;;;;;;;;;5032418;28;20050;-69
2023/05/26 10:12:28;;;;;;;13.68;3.65;;;;;;;;;;5028924;28;20119;-68
2023/05/26 10:14:54;;;;;;;11.57;3.25;;;;;;;;;;5027915;28;20433;-68
2023/05/26 10:17:25;;;;;;;12.15;3.50;;;;;;;;;;5027057;28;20460;-69
2023/05/26 10:19:52;;;;;;;15.32;4.07;;;;;;;;;;5031958;28;20406;-69
2023/05/26 10:22:21;;;;;;;12.15;3.53;;;;;;;;;;5015594;28;20464;-68
2023/05/26 10:24:51;;;;;;;14.23;3.47;;;;;;;;;;5015564;28;20474;-69
2023/05/26 10:27:24;;;;;;;15.30;4.00;;;;;;;;;;5015057;28;20132;-69
2023/05/26 10:29:55;;;;;;;12.45;3.53;;;;;;;;;;5033125;28;20096;-69
2023/05/26 10:32:40;;;;;;;13.63;3.78;;;;;;;;;;5033118;28;20041;-69
2023/05/26 10:35:20;;;;;;;12.30;3.45;;;;;;;;;;5033247;28;20072;-69
2023/05/26 10:37:48;;;;;;;10.18;3.40;;;;;;;;;;5032968;28;20136;-69
2023/05/26 10:40:29;;;;;;;11.57;3.63;;;;;;;;;;4999221;28;20038;-69
2023/05/26 10:42:59;;;;;;;11.93;3.35;;;;;;;;;;5014590;28;20445;-69
2023/05/26 10:45:25;;;;;;;12.32;3.40;;;;;;;;;;5032192;28;20033;-69
2023/05/26 10:47:51;;;;;;;10.38;3.15;;;;;;;;;;5031757;28;20511;-69
2023/05/26 10:50:17;;;;;;;12.57;3.58;;;;;;;;;;5032721;28;20049;-69
2023/05/26 10:52:47;;;;;;;12.50;3.75;;;;;;;;;;5032783;28;20133;-69
2023/05/26 10:55:28;;;;;;;11.15;3.45;;;;;;;;;;5031561;28;20049;-70
2023/05/26 10:57:55;;;;;;;16.67;3.58;;;;;;;;;;5030751;28;20351;-69
2023/05/26 11:00:21;;;;;;;12.52;3.33;;;;;;;;;;5015113;28;20458;-69
2023/05/26 11:02:47;;;;;;;10.52;3.40;;;;;;;;;;5032570;28;20053;-69
2023/05/26 11:05:32;;;;;;;10.23;3.30;;;;;;;;;;5032625;28;20059;-69
2023/05/26 11:07:58;;;;;;;15.00;3.63;;;;;;;;;;5032210;28;20045;-69
2023/05/26 11:10:25;;;;;;;9.65;3.47;;;;;;;;;;5032435;28;20441;-69
2023/05/26 11:12:54;;;;;;;11.85;3.65;;;;;;;;;;5014732;28;20041;-69
2023/05/26 11:15:26;;;;;;;11.68;3.40;;;;;;;;;;5032125;28;20049;-69
2023/05/26 11:18:08;;;;;;;13.35;3.80;;;;;;;;;;5031460;28;20049;-69
2023/05/26 11:20:34;;;;;;;14.82;4.38;;;;;;;;;;5032109;28;20045;-69
2023/05/26 11:23:00;;;;;;;17.67;4.15;;;;;;;;;;5014684;28;20049;-69
2023/05/26 11:25:27;;;;;;;13.25;4.00;;;;;;;;;;5014210;28;20045;-69
2023/05/26 11:27:53;;;;;;;16.02;4.28;;;;;;;;;;5032069;28;20049;-68
2023/05/26 11:30:19;;;;;;;13.18;4.30;;;;;;;;;;5032328;28;20132;-69
2023/05/26 11:32:45;;;;;;;14.88;4.20;;;;;;;;;;5032063;28;20155;-68
2023/05/26 11:35:21;;;;;;;13.55;3.55;;;;;;;;;;5032297;28;20038;-69
2023/05/26 11:37:47;;;;;;;15.93;4.15;;;;;;;;;;5030360;28;20171;-71
2023/05/26 11:40:14;;;;;;;11.85;3.70;;;;;;;;;;5028938;28;20033;-72
2023/05/26 11:42:40;;;;;;;13.13;3.80;;;;;;;;;;5027784;28;20060;-71
2023/05/26 11:45:06;;;;;;;15.18;4.25;;;;;;;;;;5029450;28;20049;-71
2023/05/26 11:47:32;;;;;;;11.25;3.65;;;;;;;;;;5010866;28;20052;-71
2023/05/26 11:50:11;;;;;;;14.43;3.75;;;;;;;;;;5011057;28;20468;-72
2023/05/26 11:52:47;;;;;;;11.38;3.78;;;;;;;;;;5028655;28;20581;-73
2023/05/26 11:55:14;;;;;;;13.82;3.88;;;;;;;;;;5029665;28;20047;-72
2023/05/26 11:57:42;;;;;;;16.42;3.95;;;;;;;;;;5033115;28;20064;-71
2023/05/26 12:00:18;;;;;;;14.57;3.95;;;;;;;;;;5036423;28;20049;-71
2023/05/26 12:02:45;;;;;;;13.05;3.92;;;;;;;;;;5035048;28;20049;-71
2023/05/26 12:05:17;;;;;;;17.48;4.20;;;;;;;;;;5031395;28;20422;-71
2023/05/26 12:07:43;;;;;;;12.43;3.65;;;;;;;;;;5031475;28;20136;-72
2023/05/26 12:10:09;;;;;;;13.00;4.10;;;;;;;;;;5032956;28;20128;-73
2023/05/26 12:12:51;;;;;;;13.35;4.25;;;;;;;;;;5031393;28;20037;-72
2023/05/26 12:15:21;;;;;;;14.85;4.43;;;;;;;;;;5032801;28;20033;-73
2023/05/26 12:17:47;;;;;;;11.32;3.60;;;;;;;;;;5014664;28;20037;-73
2023/05/26 12:20:15;;;;;;;12.25;3.55;;;;;;;;;;5032611;28;20046;-73
2023/05/26 12:22:42;;;;;;;13.20;3.65;;;;;;;;;;5015046;28;20037;-72
2023/05/26 12:25:08;;;;;;;11.32;3.47;;;;;;;;;;5033008;28;20429;-72
2023/05/26 12:27:36;;;;;;;10.18;3.60;;;;;;;;;;5031155;28;20470;-72
2023/05/26 12:30:16;;;;;;;16.83;3.72;;;;;;;;;;5032542;28;20045;-72
2023/05/26 12:32:42;;;;;;;13.73;4.32;;;;;;;;;;5031981;28;20042;-72
2023/05/26 12:35:08;;;;;;;14.20;4.13;;;;;;;;;;5033769;28;20513;-70
2023/05/26 12:37:34;;;;;;;15.30;4.70;;;;;;;;;;5035403;28;20048;-70
2023/05/26 12:40:01;;;;;;;16.63;5.35;;;;;;;;;;5032990;28;20045;-70
2023/05/26 12:42:27;;;;;;;15.80;4.97;;;;;;;;;;5032937;28;20111;-70
2023/05/26 12:44:53;;;;;;;16.17;4.93;;;;;;;;;;5033872;28;20045;-69
2023/05/26 12:47:19;;;;;;;16.85;5.50;;;;;;;;;;5033327;28;20063;-69
2023/05/26 12:49:45;;;;;;;16.33;4.97;;;;;;;;;;5034627;28;20048;-69
2023/05/26 12:52:11;;;;;;;17.83;4.45;;;;;;;;;;5043073;28;20390;-69
2023/05/26 12:54:37;;;;;;;14.48;4.63;;;;;;;;;;5036879;28;20120;-69
2023/05/26 12:57:04;;;;;;;16.63;4.65;;;;;;;;;;5039574;28;20045;-69
2023/05/26 12:59:33;;;;;;;15.57;4.45;;;;;;;;;;5033728;28;20046;-69
2023/05/26 13:01:59;;;;;;;17.40;6.20;;;;;;;;;;5031340;28;20052;-69
2023/05/26 13:04:25;;;;;;;17.83;5.22;;;;;;;;;;5034470;28;20060;-70
2023/05/26 13:06:52;;;;;;;14.30;4.47;;;;;;;;;;5033662;28;20069;-69
2023/05/26 13:09:18;;;;;;;15.95;4.55;;;;;;;;;;5032082;28;20124;-70
2023/05/26 13:11:44;;;;;;;17.05;4.82;;;;;;;;;;5034081;28;20094;-69
2023/05/26 13:14:10;;;;;;;18.40;4.55;;;;;;;;;;5034490;28;20076;-69
2023/05/26 13:16:37;;;;;;;20.58;4.40;;;;;;;;;;5034267;28;20042;-69
2023/05/26 13:19:04;;;;;;;19.80;5.07;;;;;;;;;;5015753;28;20125;-69
2023/05/26 13:21:30;;;;;;;15.27;4.78;;;;;;;;;;5051825;28;20048;-68
2023/05/26 13:23:56;;;;;;;18.38;5.28;;;;;;;;;;5034852;28;20072;-68
2023/05/26 13:26:23;;;;;;;15.80;5.15;;;;;;;;;;5034079;28;20049;-69
2023/05/26 13:28:50;;;;;;;15.43;4.32;;;;;;;;;;5054087;28;20049;-69
2023/05/26 13:31:17;;;;;;;17.65;4.85;;;;;;;;;;5045735;28;20052;-69
2023/05/26 13:33:43;;;;;;;13.20;4.47;;;;;;;;;;5016646;28;20053;-69
2023/05/26 13:36:09;;;;;;;15.93;4.75;;;;;;;;;;5034515;28;20093;-69
2023/05/26 13:38:35;;;;;;;14.60;4.53;;;;;;;;;;5034136;28;20041;-69
2023/05/26 13:41:01;;;;;;;17.98;5.30;;;;;;;;;;5032360;28;20125;-69
2023/05/26 13:43:27;;;;;;;19.50;4.88;;;;;;;;;;5033153;28;20520;-69
2023/05/26 13:45:53;;;;;;;18.88;4.38;;;;;;;;;;5033494;28;20136;-69
2023/05/26 13:48:20;;;;;;;18.23;4.65;;;;;;;;;;5031123;28;20093;-69
2023/05/26 13:50:46;;;;;;;17.80;3.88;;;;;;;;;;5032529;28;20053;-68
2023/05/26 13:53:12;;;;;;;15.38;5.15;;;;;;;;;;5033488;28;20038;-70
2023/05/26 13:55:41;;;;;;;13.27;4.35;;;;;;;;;;5033995;28;20098;-69
2023/05/26 13:58:07;;;;;;;17.02;5.22;;;;;;;;;;5032310;28;20490;-70
2023/05/26 14:00:33;;;;;;;13.00;3.63;;;;;;;;;;5032148;28;20441;-69
2023/05/26 14:03:00;;;;;;;13.23;4.05;;;;;;;;;;5015951;28;20371;-69
2023/05/26 14:05:26;;;;;;;17.00;4.45;;;;;;;;;;5031643;28;20061;-69
2023/05/26 14:07:52;;;;;;;14.15;3.80;;;;;;;;;;5033596;28;20053;-69
2023/05/26 14:10:18;;;;;;;15.07;4.10;;;;;;;;;;5033431;28;20390;-69
2023/05/26 14:12:44;;;;;;;16.10;3.85;;;;;;;;;;5033740;28;20562;-69
2023/05/26 14:15:10;;;;;;;13.27;3.83;;;;;;;;;;5032679;28;20202;-69
2023/05/26 14:17:36;;;;;;;12.90;4.20;;;;;;;;;;5032480;28;20091;-69
2023/05/26 14:20:02;;;;;;;11.65;3.92;;;;;;;;;;5033605;28;20053;-68
2023/05/26 14:22:29;;;;;;;16.30;5.47;;;;;;;;;;5031886;28;20053;-69
2023/05/26 14:24:55;;;;;;;14.02;3.95;;;;;;;;;;5032941;28;20103;-68
2023/05/26 14:27:21;;;;;;;15.40;3.90;;;;;;;;;;5033061;28;20152;-68
2023/05/26 14:29:47;;;;;;;10.95;4.03;;;;;;;;;;5029397;28;20148;-68
2023/05/26 14:32:13;;;;;;;13.80;4.80;;;;;;;;;;5032977;28;20065;-68